sensor_id;sensor_type;location;lat;lon;timestamp;pressure;altitude;pressure_sealevel;temperature;humidity
83691;BME280;73671;43.220;0.064;2024-01-30T00:02:08;99102.97;;;8.05;63.41
83691;BME280;73671;43.220;0.064;2024-01-30T00:04:33;99100.63;;;8.04;62.97
83691;BME280;73671;43.220;0.064;2024-01-30T00:06:59;99108.78;;;7.75;64.13
83691;BME280;73671;43.220;0.064;2024-01-30T00:09:24;99102.59;;;7.35;65.99
83691;BME280;73671;43.220;0.064;2024-01-30T00:11:49;99099.50;;;7.22;66.69
83691;BME280;73671;43.220;0.064;2024-01-30T00:14:15;99102.56;;;7.10;66.63
83691;BME280;73671;43.220;0.064;2024-01-30T00:16:40;99102.97;;;7.16;66.13
83691;BME280;73671;43.220;0.064;2024-01-30T00:19:06;99103.75;;;7.38;65.09
83691;BME280;73671;43.220;0.064;2024-01-30T00:21:33;99098.34;;;7.34;65.87
83691;BME280;73671;43.220;0.064;2024-01-30T00:23:59;99108.41;;;7.37;65.61
83691;BME280;73671;43.220;0.064;2024-01-30T00:26:24;99095.66;;;7.45;65.08
83691;BME280;73671;43.220;0.064;2024-01-30T00:28:49;99100.66;;;7.54;64.86
83691;BME280;73671;43.220;0.064;2024-01-30T00:31:15;99102.22;;;7.58;64.26
83691;BME280;73671;43.220;0.064;2024-01-30T00:33:41;99106.09;;;7.61;63.81
83691;BME280;73671;43.220;0.064;2024-01-30T00:36:08;99104.53;;;7.63;63.77
83691;BME280;73671;43.220;0.064;2024-01-30T00:38:33;99103.78;;;7.63;64.10
83691;BME280;73671;43.220;0.064;2024-01-30T00:40:59;99096.44;;;7.60;64.16
83691;BME280;73671;43.220;0.064;2024-01-30T00:43:24;99089.44;;;7.62;64.22
83691;BME280;73671;43.220;0.064;2024-01-30T00:45:50;99096.03;;;7.61;64.83
83691;BME280;73671;43.220;0.064;2024-01-30T00:48:17;99094.09;;;7.62;63.78
83691;BME280;73671;43.220;0.064;2024-01-30T00:50:43;99085.97;;;7.62;64.10
83691;BME280;73671;43.220;0.064;2024-01-30T00:53:09;99087.13;;;7.61;63.55
83691;BME280;73671;43.220;0.064;2024-01-30T00:55:34;99081.31;;;7.59;63.71
83691;BME280;73671;43.220;0.064;2024-01-30T00:58:00;99088.28;;;7.56;63.39
83691;BME280;73671;43.220;0.064;2024-01-30T01:00:25;99089.84;;;7.54;63.33
83691;BME280;73671;43.220;0.064;2024-01-30T01:02:57;99082.88;;;7.49;63.15
83691;BME280;73671;43.220;0.064;2024-01-30T01:05:23;99082.09;;;7.49;63.88
83691;BME280;73671;43.220;0.064;2024-01-30T01:07:48;99079.00;;;7.47;63.68
83691;BME280;73671;43.220;0.064;2024-01-30T01:10:14;99084.44;;;7.43;62.69
83691;BME280;73671;43.220;0.064;2024-01-30T01:12:41;99081.69;;;7.39;63.09
83691;BME280;73671;43.220;0.064;2024-01-30T01:15:07;99088.69;;;7.40;62.71
83691;BME280;73671;43.220;0.064;2024-01-30T01:17:35;99082.88;;;7.38;62.66
83691;BME280;73671;43.220;0.064;2024-01-30T01:20:00;99093.69;;;7.35;63.25
83691;BME280;73671;43.220;0.064;2024-01-30T01:22:26;99091.38;;;7.33;62.76
83691;BME280;73671;43.220;0.064;2024-01-30T01:24:51;99094.47;;;7.32;63.03
83691;BME280;73671;43.220;0.064;2024-01-30T01:27:16;99096.78;;;7.30;62.94
83691;BME280;73671;43.220;0.064;2024-01-30T01:29:42;99085.97;;;7.26;63.11
83691;BME280;73671;43.220;0.064;2024-01-30T01:32:08;99091.38;;;7.22;62.92
83691;BME280;73671;43.220;0.064;2024-01-30T01:34:33;99091.38;;;7.19;62.40
83691;BME280;73671;43.220;0.064;2024-01-30T01:36:59;99090.56;;;7.11;63.72
83691;BME280;73671;43.220;0.064;2024-01-30T01:39:25;99094.44;;;7.10;63.34
83691;BME280;73671;43.220;0.064;2024-01-30T01:41:50;99100.63;;;7.04;63.65
83691;BME280;73671;43.220;0.064;2024-01-30T01:44:17;99102.16;;;7.05;63.40
83691;BME280;73671;43.220;0.064;2024-01-30T01:46:42;99101.00;;;6.98;64.00
83691;BME280;73671;43.220;0.064;2024-01-30T01:49:08;99102.94;;;7.01;63.88
83691;BME280;73671;43.220;0.064;2024-01-30T01:51:35;99104.09;;;7.00;63.79
83691;BME280;73671;43.220;0.064;2024-01-30T01:54:03;99106.41;;;6.98;64.54
83691;BME280;73671;43.220;0.064;2024-01-30T01:56:31;99105.25;;;6.99;63.86
83691;BME280;73671;43.220;0.064;2024-01-30T01:59:00;99099.81;;;6.99;63.94
83691;BME280;73671;43.220;0.064;2024-01-30T02:01:31;99102.13;;;6.97;63.81
83691;BME280;73671;43.220;0.064;2024-01-30T02:03:58;99102.13;;;6.97;64.27
83691;BME280;73671;43.220;0.064;2024-01-30T02:06:23;99102.91;;;6.94;64.43
83691;BME280;73671;43.220;0.064;2024-01-30T02:08:49;99114.16;;;6.93;65.01
83691;BME280;73671;43.220;0.064;2024-01-30T02:11:15;99115.28;;;6.88;65.91
83691;BME280;73671;43.220;0.064;2024-01-30T02:13:41;99112.94;;;6.79;65.94
83691;BME280;73671;43.220;0.064;2024-01-30T02:16:07;99113.69;;;6.80;66.17
83691;BME280;73671;43.220;0.064;2024-01-30T02:18:32;99112.94;;;6.79;66.19
83691;BME280;73671;43.220;0.064;2024-01-30T02:23:27;99113.69;;;6.80;66.23
83691;BME280;73671;43.220;0.064;2024-01-30T02:25:52;99116.03;;;6.85;65.97
83691;BME280;73671;43.220;0.064;2024-01-30T02:28:19;99115.28;;;6.88;65.16
83691;BME280;73671;43.220;0.064;2024-01-30T02:30:44;99105.22;;;6.89;65.27
83691;BME280;73671;43.220;0.064;2024-01-30T02:33:10;99109.88;;;6.88;65.12
83691;BME280;73671;43.220;0.064;2024-01-30T02:35:35;99109.47;;;6.86;64.90
83691;BME280;73671;43.220;0.064;2024-01-30T02:38:01;99116.44;;;6.84;64.31
83691;BME280;73671;43.220;0.064;2024-01-30T02:40:26;99121.81;;;6.80;64.79
83691;BME280;73671;43.220;0.064;2024-01-30T02:42:52;99133.81;;;6.79;64.40
83691;BME280;73671;43.220;0.064;2024-01-30T02:45:17;99127.59;;;6.75;64.80
83691;BME280;73671;43.220;0.064;2024-01-30T02:47:43;99127.50;;;6.53;64.91
83691;BME280;73671;43.220;0.064;2024-01-30T02:50:08;99128.31;;;6.57;64.97
83691;BME280;73671;43.220;0.064;2024-01-30T02:52:34;99132.13;;;6.46;65.07
83691;BME280;73671;43.220;0.064;2024-01-30T02:54:59;99133.22;;;6.37;66.39
83691;BME280;73671;43.220;0.064;2024-01-30T02:57:25;99146.75;;;6.34;66.44
83691;BME280;73671;43.220;0.064;2024-01-30T02:59:51;99138.19;;;6.25;66.55
83691;BME280;73671;43.220;0.064;2024-01-30T03:02:16;99148.25;;;6.28;66.10
83691;BME280;73671;43.220;0.064;2024-01-30T03:04:41;99146.19;;;6.07;67.69
83691;BME280;73671;43.220;0.064;2024-01-30T03:07:08;99153.50;;;6.06;67.55
83691;BME280;73671;43.220;0.064;2024-01-30T03:09:33;99148.09;;;6.06;67.43
83691;BME280;73671;43.220;0.064;2024-01-30T03:11:58;99152.41;;;6.14;67.09
83691;BME280;73671;43.220;0.064;2024-01-30T03:14:24;99155.19;;;6.22;67.33
83691;BME280;73671;43.220;0.064;2024-01-30T03:16:49;99160.63;;;6.29;66.41
83691;BME280;73671;43.220;0.064;2024-01-30T03:19:15;99154.06;;;6.33;65.87
83691;BME280;73671;43.220;0.064;2024-01-30T03:21:40;99157.97;;;6.36;65.80
83691;BME280;73671;43.220;0.064;2024-01-30T03:24:05;99166.03;;;6.29;66.23
83691;BME280;73671;43.220;0.064;2024-01-30T03:26:31;99163.34;;;6.29;65.83
83691;BME280;73671;43.220;0.064;2024-01-30T03:28:56;99166.09;;;6.36;66.09
83691;BME280;73671;43.220;0.064;2024-01-30T03:31:21;99166.47;;;6.38;65.84
83691;BME280;73671;43.220;0.064;2024-01-30T03:33:47;99169.97;;;6.39;65.24
83691;BME280;73671;43.220;0.064;2024-01-30T03:36:12;99173.44;;;6.39;65.55
83691;BME280;73671;43.220;0.064;2024-01-30T03:38:38;99177.66;;;6.36;65.87
83691;BME280;73671;43.220;0.064;2024-01-30T03:41:07;99182.22;;;6.25;66.81
83691;BME280;73671;43.220;0.064;2024-01-30T03:43:32;99181.78;;;6.12;67.08
83691;BME280;73671;43.220;0.064;2024-01-30T03:45:59;99179.72;;;5.99;67.47
83691;BME280;73671;43.220;0.064;2024-01-30T03:48:24;99178.16;;;5.94;67.37
83691;BME280;73671;43.220;0.064;2024-01-30T03:50:50;99183.25;;;6.06;67.27
83691;BME280;73671;43.220;0.064;2024-01-30T03:53:16;99187.56;;;6.14;66.79
83691;BME280;73671;43.220;0.064;2024-01-30T03:55:42;99188.19;;;5.97;67.84
83691;BME280;73671;43.220;0.064;2024-01-30T03:58:07;99183.13;;;5.92;68.82
83691;BME280;73671;43.220;0.064;2024-01-30T04:00:33;99194.28;;;5.87;68.93
83691;BME280;73671;43.220;0.064;2024-01-30T04:02:58;99189.63;;;5.84;68.77
83691;BME280;73671;43.220;0.064;2024-01-30T04:05:23;99194.63;;;5.85;69.67
83691;BME280;73671;43.220;0.064;2024-01-30T04:07:49;99190.75;;;5.83;69.76
83691;BME280;73671;43.220;0.064;2024-01-30T04:10:14;99189.63;;;5.84;70.84
83691;BME280;73671;43.220;0.064;2024-01-30T04:12:40;99184.88;;;5.73;71.71
83691;BME280;73671;43.220;0.064;2024-01-30T04:15:05;99197.06;;;5.53;71.73
83691;BME280;73671;43.220;0.064;2024-01-30T04:17:30;99190.81;;;5.45;71.80
83691;BME280;73671;43.220;0.064;2024-01-30T04:19:56;99192.25;;;5.36;71.94
83691;BME280;73671;43.220;0.064;2024-01-30T04:22:21;99188.50;;;5.44;71.26
83691;BME280;73671;43.220;0.064;2024-01-30T04:24:46;99183.63;;;5.60;70.73
83691;BME280;73671;43.220;0.064;2024-01-30T04:27:12;99198.03;;;5.75;70.20
83691;BME280;73671;43.220;0.064;2024-01-30T04:29:37;99187.25;;;5.79;69.39
83691;BME280;73671;43.220;0.064;2024-01-30T04:32:03;99199.22;;;5.78;69.97
83691;BME280;73671;43.220;0.064;2024-01-30T04:34:28;99189.63;;;5.84;69.63
83691;BME280;73671;43.220;0.064;2024-01-30T04:36:54;99196.56;;;5.85;69.16
83691;BME280;73671;43.220;0.064;2024-01-30T04:39:19;99191.22;;;5.92;69.13
83691;BME280;73671;43.220;0.064;2024-01-30T04:41:44;99191.97;;;5.89;68.81
83691;BME280;73671;43.220;0.064;2024-01-30T04:44:10;99191.81;;;5.71;69.45
83691;BME280;73671;43.220;0.064;2024-01-30T04:46:35;99194.19;;;5.76;69.15
83691;BME280;73671;43.220;0.064;2024-01-30T04:49:00;99197.28;;;5.74;69.55
83691;BME280;73671;43.220;0.064;2024-01-30T04:51:26;99203.94;;;5.88;69.15
83691;BME280;73671;43.220;0.064;2024-01-30T04:53:51;99195.47;;;5.93;68.40
83691;BME280;73671;43.220;0.064;2024-01-30T04:56:16;99194.97;;;5.77;69.08
83691;BME280;73671;43.220;0.064;2024-01-30T04:58:42;99194.53;;;5.34;71.99
83691;BME280;73671;43.220;0.064;2024-01-30T05:01:07;99196.09;;;5.35;71.57
83691;BME280;73671;43.220;0.064;2024-01-30T05:03:33;99184.69;;;5.48;71.21
83691;BME280;73671;43.220;0.064;2024-01-30T05:05:59;99189.47;;;5.69;69.56
83691;BME280;73671;43.220;0.064;2024-01-30T05:08:25;99188.81;;;5.80;69.55
83691;BME280;73671;43.220;0.064;2024-01-30T05:10:50;99187.25;;;5.79;69.36
83691;BME280;73671;43.220;0.064;2024-01-30T05:13:15;99190.41;;;5.88;69.30
83691;BME280;73671;43.220;0.064;2024-01-30T05:15:41;99193.56;;;5.93;68.25
83691;BME280;73671;43.220;0.064;2024-01-30T05:18:06;99197.50;;;6.00;68.26
83691;BME280;73671;43.220;0.064;2024-01-30T05:20:31;99195.97;;;6.02;67.90
83691;BME280;73671;43.220;0.064;2024-01-30T05:22:57;99199.84;;;6.01;68.32
83691;BME280;73671;43.220;0.064;2024-01-30T05:25:22;99199.06;;;6.04;67.69
83691;BME280;73671;43.220;0.064;2024-01-30T05:27:48;99203.66;;;6.00;68.28
83691;BME280;73671;43.220;0.064;2024-01-30T05:30:15;99201.38;;;6.02;68.31
83691;BME280;73671;43.220;0.064;2024-01-30T05:32:40;99202.13;;;5.99;68.61
83691;BME280;73671;43.220;0.064;2024-01-30T05:35:06;99204.47;;;6.04;68.01
83691;BME280;73671;43.220;0.064;2024-01-30T05:37:33;99208.34;;;6.07;67.82
83691;BME280;73671;43.220;0.064;2024-01-30T05:39:58;99207.22;;;6.08;67.91
83691;BME280;73671;43.220;0.064;2024-01-30T05:42:23;99211.09;;;6.10;68.18
83691;BME280;73671;43.220;0.064;2024-01-30T05:44:49;99207.63;;;6.10;67.79
83691;BME280;73671;43.220;0.064;2024-01-30T05:47:15;99209.94;;;6.11;67.23
83691;BME280;73671;43.220;0.064;2024-01-30T05:49:41;99207.25;;;6.11;67.18
83691;BME280;73671;43.220;0.064;2024-01-30T05:52:06;99211.50;;;6.12;67.79
83691;BME280;73671;43.220;0.064;2024-01-30T05:54:32;99215.34;;;6.11;67.82
83691;BME280;73671;43.220;0.064;2024-01-30T05:56:57;99225.41;;;6.14;67.28
83691;BME280;73671;43.220;0.064;2024-01-30T05:59:22;99221.94;;;6.14;67.65
83691;BME280;73671;43.220;0.064;2024-01-30T06:01:48;99230.81;;;6.14;67.38
83691;BME280;73671;43.220;0.064;2024-01-30T06:04:14;99232.75;;;6.14;67.73
83691;BME280;73671;43.220;0.064;2024-01-30T06:06:40;99230.03;;;6.14;67.62
83691;BME280;73671;43.220;0.064;2024-01-30T06:09:05;99241.63;;;6.14;67.44
83691;BME280;73671;43.220;0.064;2024-01-30T06:11:31;99237.78;;;6.15;67.42
83691;BME280;73671;43.220;0.064;2024-01-30T06:13:56;99245.53;;;6.17;67.62
83691;BME280;73671;43.220;0.064;2024-01-30T06:16:21;99241.25;;;6.12;67.35
83691;BME280;73671;43.220;0.064;2024-01-30T06:18:48;99247.03;;;6.14;67.62
83691;BME280;73671;43.220;0.064;2024-01-30T06:21:13;99252.44;;;6.14;67.80
83691;BME280;73671;43.220;0.064;2024-01-30T06:23:39;99238.94;;;6.14;67.59
83691;BME280;73671;43.220;0.064;2024-01-30T06:26:06;99246.25;;;6.10;67.96
83691;BME280;73671;43.220;0.064;2024-01-30T06:28:31;99256.25;;;6.06;68.08
83691;BME280;73671;43.220;0.064;2024-01-30T06:30:57;99254.66;;;6.02;68.54
83691;BME280;73671;43.220;0.064;2024-01-30T06:33:22;99253.91;;;6.05;68.28
83691;BME280;73671;43.220;0.064;2024-01-30T06:35:48;99256.25;;;6.06;68.00
83691;BME280;73671;43.220;0.064;2024-01-30T06:38:13;99255.91;;;6.08;67.51
83691;BME280;73671;43.220;0.064;2024-01-30T06:40:40;99262.00;;;6.01;68.10
83691;BME280;73671;43.220;0.064;2024-01-30T06:43:06;99264.66;;;5.94;69.21
83691;BME280;73671;43.220;0.064;2024-01-30T06:45:33;99275.47;;;5.98;68.58
83691;BME280;73671;43.220;0.064;2024-01-30T06:47:59;99266.19;;;5.95;68.51
83691;BME280;73671;43.220;0.064;2024-01-30T06:50:25;99268.91;;;5.95;69.30
83691;BME280;73671;43.220;0.064;2024-01-30T06:52:50;99274.66;;;5.93;68.99
83691;BME280;73671;43.220;0.064;2024-01-30T06:55:16;99281.34;;;6.03;68.48
83691;BME280;73671;43.220;0.064;2024-01-30T06:57:41;99286.41;;;6.08;68.48
83691;BME280;73671;43.220;0.064;2024-01-30T07:00:07;99285.66;;;6.11;68.48
83691;BME280;73671;43.220;0.064;2024-01-30T07:02:32;99293.00;;;6.11;67.86
83691;BME280;73671;43.220;0.064;2024-01-30T07:04:58;99289.53;;;6.14;67.93
83691;BME280;73671;43.220;0.064;2024-01-30T07:07:23;99295.72;;;6.14;68.30
83691;BME280;73671;43.220;0.064;2024-01-30T07:09:49;99291.81;;;6.08;68.19
83691;BME280;73671;43.220;0.064;2024-01-30T07:12:17;99300.22;;;6.00;68.63
83691;BME280;73671;43.220;0.064;2024-01-30T07:14:43;99297.75;;;5.84;69.52
83691;BME280;73671;43.220;0.064;2024-01-30T07:17:08;99309.44;;;5.95;69.00
83691;BME280;73671;43.220;0.064;2024-01-30T07:19:34;99311.84;;;6.04;68.40
83691;BME280;73671;43.220;0.064;2024-01-30T07:22:00;99313.44;;;6.08;67.58
83691;BME280;73671;43.220;0.064;2024-01-30T07:24:25;99314.03;;;5.91;69.03
83691;BME280;73671;43.220;0.064;2024-01-30T07:26:51;99317.22;;;5.32;70.66
83691;BME280;73671;43.220;0.064;2024-01-30T07:29:16;99313.28;;;5.26;71.01
83691;BME280;73671;43.220;0.064;2024-01-30T07:31:42;99321.19;;;5.12;72.14
83691;BME280;73671;43.220;0.064;2024-01-30T07:34:07;99315.38;;;5.40;71.07
83691;BME280;73671;43.220;0.064;2024-01-30T07:36:33;99313.94;;;5.50;70.32
83691;BME280;73671;43.220;0.064;2024-01-30T07:38:58;99321.41;;;5.60;69.94
83691;BME280;73671;43.220;0.064;2024-01-30T07:41:23;99321.56;;;5.74;69.83
83691;BME280;73671;43.220;0.064;2024-01-30T07:43:50;99319.03;;;5.89;69.77
83691;BME280;73671;43.220;0.064;2024-01-30T07:46:15;99325.50;;;5.81;70.26
83691;BME280;73671;43.220;0.064;2024-01-30T07:48:41;99325.56;;;5.88;70.02
83691;BME280;73671;43.220;0.064;2024-01-30T07:51:06;99331.56;;;6.04;69.73
83691;BME280;73671;43.220;0.064;2024-01-30T07:53:31;99326.63;;;6.13;69.47
83691;BME280;73671;43.220;0.064;2024-01-30T07:55:57;99331.34;;;6.24;69.47
83691;BME280;73671;43.220;0.064;2024-01-30T07:58:22;99330.16;;;6.18;69.85
83691;BME280;73671;43.220;0.064;2024-01-30T08:00:49;99334.88;;;6.28;69.06
83691;BME280;73671;43.220;0.064;2024-01-30T08:03:14;99329.09;;;6.33;69.27
83691;BME280;73671;43.220;0.064;2024-01-30T08:05:41;99335.75;;;6.39;68.93
83691;BME280;73671;43.220;0.064;2024-01-30T08:08:07;99337.75;;;6.49;68.47
83691;BME280;73671;43.220;0.064;2024-01-30T08:10:32;99331.53;;;6.45;68.92
83691;BME280;73671;43.220;0.064;2024-01-30T08:12:58;99343.97;;;6.53;68.94
83691;BME280;73671;43.220;0.064;2024-01-30T08:15:23;99341.69;;;6.59;69.20
83691;BME280;73671;43.220;0.064;2024-01-30T08:17:48;99344.03;;;6.61;68.52
83691;BME280;73671;43.220;0.064;2024-01-30T08:20:14;99340.16;;;6.62;68.82
83691;BME280;73671;43.220;0.064;2024-01-30T08:22:39;99340.56;;;6.60;69.12
83691;BME280;73671;43.220;0.064;2024-01-30T08:25:08;99343.97;;;6.53;69.88
83691;BME280;73671;43.220;0.064;2024-01-30T08:27:35;99346.75;;;6.64;69.23
83691;BME280;73671;43.220;0.064;2024-01-30T08:30:01;99355.63;;;6.57;70.21
83691;BME280;73671;43.220;0.064;2024-01-30T08:32:27;99347.88;;;6.56;70.74
83691;BME280;73671;43.220;0.064;2024-01-30T08:34:52;99346.06;;;6.74;70.58
83691;BME280;73671;43.220;0.064;2024-01-30T08:37:17;99351.16;;;6.83;70.14
83691;BME280;73671;43.220;0.064;2024-01-30T08:39:43;99349.69;;;6.93;70.37
83691;BME280;73671;43.220;0.064;2024-01-30T08:42:09;99353.59;;;6.99;70.33
83691;BME280;73671;43.220;0.064;2024-01-30T08:44:35;99352.56;;;7.21;69.37
83691;BME280;73671;43.220;0.064;2024-01-30T08:47:00;99352.25;;;7.37;69.61
83691;BME280;73671;43.220;0.064;2024-01-30T08:49:26;99363.16;;;7.52;68.92
83691;BME280;73671;43.220;0.064;2024-01-30T08:51:51;99357.75;;;7.59;69.01
83691;BME280;73671;43.220;0.064;2024-01-30T08:54:17;99365.91;;;7.62;69.30
83691;BME280;73671;43.220;0.064;2024-01-30T08:56:42;99362.47;;;7.69;70.00
83691;BME280;73671;43.220;0.064;2024-01-30T08:59:08;99365.56;;;7.71;69.93
83691;BME280;73671;43.220;0.064;2024-01-30T09:01:33;99360.97;;;7.90;70.01
83691;BME280;73671;43.220;0.064;2024-01-30T09:03:59;99372.25;;;8.06;68.95
83691;BME280;73671;43.220;0.064;2024-01-30T09:06:24;99361.81;;;8.22;68.79
83691;BME280;73671;43.220;0.064;2024-01-30T09:08:51;99371.91;;;8.29;69.21
83691;BME280;73671;43.220;0.064;2024-01-30T09:11:17;99369.59;;;8.38;68.65
83691;BME280;73671;43.220;0.064;2024-01-30T09:13:42;99372.75;;;8.51;68.64
83691;BME280;73671;43.220;0.064;2024-01-30T09:16:08;99380.50;;;8.56;68.21
83691;BME280;73671;43.220;0.064;2024-01-30T09:18:34;99371.97;;;8.76;68.07
83691;BME280;73671;43.220;0.064;2024-01-30T09:20:59;99378.94;;;8.98;67.73
83691;BME280;73671;43.220;0.064;2024-01-30T09:23:26;99377.34;;;9.15;68.19
83691;BME280;73671;43.220;0.064;2024-01-30T09:25:52;99384.31;;;9.34;67.59
83691;BME280;73671;43.220;0.064;2024-01-30T09:28:17;99381.50;;;9.55;66.98
83691;BME280;73671;43.220;0.064;2024-01-30T09:30:43;99382.59;;;9.83;66.80
83691;BME280;73671;43.220;0.064;2024-01-30T09:33:08;99384.72;;;10.17;66.49
83691;BME280;73671;43.220;0.064;2024-01-30T09:35:33;99379.03;;;10.60;65.36
83691;BME280;73671;43.220;0.064;2024-01-30T09:37:59;99383.34;;;11.02;64.29
83691;BME280;73671;43.220;0.064;2024-01-30T09:40:25;99375.22;;;11.37;63.61
83691;BME280;73671;43.220;0.064;2024-01-30T09:42:51;99382.44;;;11.85;62.71
83691;BME280;73671;43.220;0.064;2024-01-30T09:45:21;99381.63;;;12.19;59.79
83691;BME280;73671;43.220;0.064;2024-01-30T09:47:48;99390.97;;;12.48;59.22
83691;BME280;73671;43.220;0.064;2024-01-30T09:50:15;99380.06;;;12.96;58.98
83691;BME280;73671;43.220;0.064;2024-01-30T09:52:40;99377.53;;;13.05;58.24
83691;BME280;73671;43.220;0.064;2024-01-30T09:55:07;99378.91;;;13.60;57.77
83691;BME280;73671;43.220;0.064;2024-01-30T09:57:33;99378.91;;;13.60;57.77
83691;BME280;73671;43.220;0.064;2024-01-30T09:59:59;99386.16;;;14.23;100.00
83691;BME280;73671;43.220;0.064;2024-01-30T10:02:24;99387.56;;;14.48;56.22
83691;BME280;73671;43.220;0.064;2024-01-30T10:04:51;99387.56;;;14.48;56.22
83691;BME280;73671;43.220;0.064;2024-01-30T10:07:17;99391.53;;;14.96;55.23
83691;BME280;73671;43.220;0.064;2024-01-30T10:09:43;99386.63;;;15.03;54.80
83691;BME280;73671;43.220;0.064;2024-01-30T10:12:09;99386.63;;;15.03;54.80
83691;BME280;73671;43.220;0.064;2024-01-30T10:14:41;99386.63;;;15.03;54.80
83691;BME280;73671;43.220;0.064;2024-01-30T10:17:11;99394.81;;;15.20;54.28
83691;BME280;73671;43.220;0.064;2024-01-30T10:19:41;99392.09;;;15.20;54.37
83691;BME280;73671;43.220;0.064;2024-01-30T10:22:07;71229.28;;;-146.39;100.00
83691;BME280;73671;43.220;0.064;2024-01-30T10:24:36;99391.56;;;15.25;54.65
83691;BME280;73671;43.220;0.064;2024-01-30T10:27:02;99394.06;;;15.78;53.36
83691;BME280;73671;43.220;0.064;2024-01-30T10:29:28;99394.06;;;15.78;53.36
83691;BME280;73671;43.220;0.064;2024-01-30T10:32:04;99394.06;;;15.78;53.36
83691;BME280;73671;43.220;0.064;2024-01-30T10:34:30;99394.66;;;16.62;52.53
83691;BME280;73671;43.220;0.064;2024-01-30T10:37:00;99394.66;;;16.62;52.53
83691;BME280;73671;43.220;0.064;2024-01-30T10:39:31;99394.72;;;18.29;49.15
83691;BME280;73671;43.220;0.064;2024-01-30T10:42:04;99394.72;;;18.29;49.15
83691;BME280;73671;43.220;0.064;2024-01-30T10:44:37;99394.72;;;18.29;49.15
83691;BME280;73671;43.220;0.064;2024-01-30T10:47:06;99394.72;;;18.29;49.15
83691;BME280;73671;43.220;0.064;2024-01-30T10:49:36;99394.72;;;18.29;49.15
83691;BME280;73671;43.220;0.064;2024-01-30T10:52:03;99395.00;;;21.78;42.36
83691;BME280;73671;43.220;0.064;2024-01-30T10:54:30;99395.00;;;21.78;42.36
83691;BME280;73671;43.220;0.064;2024-01-30T10:56:58;71229.28;;;-146.39;100.00
83691;BME280;73671;43.220;0.064;2024-01-30T10:59:27;71229.28;;;-146.39;100.00
83691;BME280;73671;43.220;0.064;2024-01-30T11:01:53;71229.28;;;-146.39;100.00
83691;BME280;73671;43.220;0.064;2024-01-30T11:04:19;71229.28;;;-146.39;100.00
83691;BME280;73671;43.220;0.064;2024-01-30T11:06:44;71229.28;;;-146.39;100.00
83691;BME280;73671;43.220;0.064;2024-01-30T11:09:12;71229.28;;;-146.39;100.00
83691;BME280;73671;43.220;0.064;2024-01-30T11:11:51;71229.28;;;-146.39;100.00
83691;BME280;73671;43.220;0.064;2024-01-30T11:14:23;71229.28;;;-146.39;100.00
83691;BME280;73671;43.220;0.064;2024-01-30T11:16:49;71229.28;;;-146.39;100.00
83691;BME280;73671;43.220;0.064;2024-01-30T11:19:14;71229.28;;;-146.39;100.00
83691;BME280;73671;43.220;0.064;2024-01-30T11:21:41;71229.28;;;-146.39;100.00
83691;BME280;73671;43.220;0.064;2024-01-30T11:24:07;71229.28;;;-146.39;100.00
83691;BME280;73671;43.220;0.064;2024-01-30T11:26:33;71229.28;;;-146.39;100.00
83691;BME280;73671;43.220;0.064;2024-01-30T11:28:58;71229.28;;;-146.39;100.00
83691;BME280;73671;43.220;0.064;2024-01-30T11:31:23;71229.28;;;-146.39;100.00
83691;BME280;73671;43.220;0.064;2024-01-30T11:33:52;71229.28;;;-146.39;100.00
83691;BME280;73671;43.220;0.064;2024-01-30T11:36:21;71229.28;;;-146.39;100.00
83691;BME280;73671;43.220;0.064;2024-01-30T11:38:49;71229.28;;;-146.39;100.00
83691;BME280;73671;43.220;0.064;2024-01-30T11:41:15;71229.28;;;-146.39;100.00
83691;BME280;73671;43.220;0.064;2024-01-30T11:43:41;71229.28;;;-146.39;100.00
83691;BME280;73671;43.220;0.064;2024-01-30T11:46:07;71229.28;;;-146.39;100.00
83691;BME280;73671;43.220;0.064;2024-01-30T11:48:32;71229.28;;;-146.39;100.00
83691;BME280;73671;43.220;0.064;2024-01-30T11:50:58;71229.28;;;-146.39;100.00
83691;BME280;73671;43.220;0.064;2024-01-30T11:53:23;71229.28;;;-146.39;100.00
83691;BME280;73671;43.220;0.064;2024-01-30T11:55:52;71229.28;;;-146.39;100.00
83691;BME280;73671;43.220;0.064;2024-01-30T11:58:18;71229.28;;;-146.39;100.00
83691;BME280;73671;43.220;0.064;2024-01-30T12:00:52;71229.28;;;-146.39;100.00
83691;BME280;73671;43.220;0.064;2024-01-30T12:03:18;71229.28;;;-146.39;100.00
83691;BME280;73671;43.220;0.064;2024-01-30T12:05:43;71229.28;;;-146.39;100.00
83691;BME280;73671;43.220;0.064;2024-01-30T12:08:15;71229.28;;;-146.39;100.00
83691;BME280;73671;43.220;0.064;2024-01-30T12:10:40;71229.28;;;-146.39;100.00
83691;BME280;73671;43.220;0.064;2024-01-30T12:13:06;71229.28;;;-146.39;100.00
83691;BME280;73671;43.220;0.064;2024-01-30T12:15:31;71229.28;;;-146.39;100.00
83691;BME280;73671;43.220;0.064;2024-01-30T12:18:05;71229.28;;;-146.39;100.00
83691;BME280;73671;43.220;0.064;2024-01-30T12:20:31;71229.28;;;-146.39;100.00
83691;BME280;73671;43.220;0.064;2024-01-30T12:22:56;71229.28;;;-146.39;100.00
83691;BME280;73671;43.220;0.064;2024-01-30T12:25:22;71229.28;;;-146.39;100.00
83691;BME280;73671;43.220;0.064;2024-01-30T12:27:49;71229.28;;;-146.39;100.00
83691;BME280;73671;43.220;0.064;2024-01-30T12:30:15;71229.28;;;-146.39;100.00
83691;BME280;73671;43.220;0.064;2024-01-30T12:32:43;71229.28;;;-146.39;100.00
83691;BME280;73671;43.220;0.064;2024-01-30T12:35:13;71229.28;;;-146.39;100.00
83691;BME280;73671;43.220;0.064;2024-01-30T12:37:40;71229.28;;;-146.39;100.00
83691;BME280;73671;43.220;0.064;2024-01-30T12:40:06;71229.28;;;-146.39;100.00
83691;BME280;73671;43.220;0.064;2024-01-30T12:42:32;71229.28;;;-146.39;100.00
83691;BME280;73671;43.220;0.064;2024-01-30T12:44:58;71229.28;;;-146.39;100.00
83691;BME280;73671;43.220;0.064;2024-01-30T12:47:26;71229.28;;;-146.39;100.00
83691;BME280;73671;43.220;0.064;2024-01-30T12:49:51;71229.28;;;-146.39;100.00
83691;BME280;73671;43.220;0.064;2024-01-30T12:52:20;71229.28;;;-146.39;100.00
83691;BME280;73671;43.220;0.064;2024-01-30T12:54:47;71229.28;;;-146.39;100.00
83691;BME280;73671;43.220;0.064;2024-01-30T12:57:12;71229.28;;;-146.39;100.00
83691;BME280;73671;43.220;0.064;2024-01-30T12:59:37;71229.28;;;-146.39;100.00